createdAt,value
2022-08-19T00:02:00.763Z,17.80
2022-08-19T00:04:35.957Z,17.80
2022-08-19T00:07:05.643Z,17.80
2022-08-19T00:09:33.642Z,17.60
2022-08-19T00:12:02.274Z,17.80
2022-08-19T00:14:33.591Z,17.80
2022-08-19T00:17:02.305Z,17.80
2022-08-19T00:19:30.480Z,17.90
2022-08-19T00:21:58.150Z,18.00
2022-08-19T00:24:26.689Z,18.00
2022-08-19T00:26:54.471Z,17.90
2022-08-19T00:29:23.897Z,17.90
2022-08-19T00:31:55.755Z,17.90
2022-08-19T00:34:24.156Z,18.00
2022-08-19T00:36:56.264Z,18.00
2022-08-19T00:39:24.305Z,18.00
2022-08-19T00:41:52.813Z,18.00
2022-08-19T00:44:27.229Z,17.90
2022-08-19T00:46:58.414Z,18.00
2022-08-19T00:49:35.766Z,18.10
2022-08-19T00:52:11.234Z,18.00
2022-08-19T00:54:41.224Z,18.10
2022-08-19T00:57:17.303Z,18.10
2022-08-19T00:59:56.311Z,18.10
2022-08-19T01:02:32.313Z,18.10
2022-08-19T01:05:03.639Z,18.00
2022-08-19T01:07:35.839Z,18.00
2022-08-19T01:10:15.622Z,18.10
2022-08-19T01:12:44.239Z,18.10
2022-08-19T01:15:17.514Z,18.10
2022-08-19T01:17:46.262Z,18.10
2022-08-19T01:20:19.024Z,18.00
2022-08-19T01:22:50.452Z,18.00
2022-08-19T01:25:21.537Z,18.00
2022-08-19T01:27:53.876Z,17.90
2022-08-19T01:30:32.777Z,17.80
2022-08-19T01:33:01.736Z,17.70
2022-08-19T01:35:31.507Z,17.80
2022-08-19T01:38:02.776Z,17.80
2022-08-19T01:40:34.282Z,17.80
2022-08-19T01:43:04.002Z,17.90
2022-08-19T01:45:34.145Z,17.90
2022-08-19T01:48:02.836Z,17.80
2022-08-19T01:50:32.483Z,17.80
2022-08-19T01:53:03.594Z,17.90
2022-08-19T01:55:40.617Z,17.90
2022-08-19T01:58:19.704Z,17.80
2022-08-19T02:00:47.549Z,17.90
2022-08-19T02:03:15.440Z,17.90
2022-08-19T02:05:44.206Z,17.90
2022-08-19T02:08:12.814Z,18.00
2022-08-19T02:10:43.418Z,18.00
2022-08-19T02:13:12.890Z,18.00
2022-08-19T02:15:41.737Z,18.10
2022-08-19T02:18:10.078Z,18.10
2022-08-19T02:20:39.632Z,18.00
2022-08-19T02:23:13.900Z,18.00
2022-08-19T02:25:46.403Z,17.90
2022-08-19T02:28:18.340Z,17.90
2022-08-19T02:30:47.587Z,17.90
2022-08-19T02:33:16.078Z,17.90
2022-08-19T02:35:45.348Z,18.00
2022-08-19T02:38:27.988Z,17.90
2022-08-19T02:40:59.816Z,17.90
2022-08-19T02:43:28.836Z,17.90
2022-08-19T02:45:57.942Z,17.90
2022-08-19T02:48:26.889Z,18.00
2022-08-19T02:50:57.849Z,18.00
2022-08-19T02:53:28.572Z,18.10
2022-08-19T02:55:56.585Z,18.10
2022-08-19T02:58:25.105Z,18.00
2022-08-19T03:00:56.334Z,18.00
2022-08-19T03:03:24.628Z,18.00
2022-08-19T03:05:56.597Z,18.00
2022-08-19T03:08:26.614Z,17.90
2022-08-19T03:10:54.981Z,17.90
2022-08-19T03:13:24.305Z,17.90
2022-08-19T03:15:52.171Z,17.90
2022-08-19T03:18:23.169Z,17.90
2022-08-19T03:20:57.078Z,17.90
2022-08-19T03:23:24.927Z,17.80
2022-08-19T03:26:03.298Z,17.80
2022-08-19T03:28:51.758Z,17.80
2022-08-19T03:31:41.771Z,17.80
2022-08-19T03:34:18.816Z,17.80
2022-08-19T03:36:48.197Z,17.80
2022-08-19T03:39:16.912Z,17.80
2022-08-19T03:41:48.570Z,17.70
2022-08-19T03:44:21.752Z,17.70
2022-08-19T03:46:56.355Z,17.60
2022-08-19T03:49:29.061Z,17.60
2022-08-19T03:51:58.977Z,17.70
2022-08-19T03:54:27.397Z,17.80
2022-08-19T03:56:57.083Z,17.80
2022-08-19T03:59:29.875Z,17.90
2022-08-19T04:02:00.552Z,17.70
2022-08-19T04:04:29.246Z,17.70
2022-08-19T04:06:58.128Z,17.80
2022-08-19T04:09:26.810Z,17.90
2022-08-19T04:11:57.916Z,17.90
2022-08-19T04:14:30.532Z,17.90
2022-08-19T04:17:00.130Z,17.80
2022-08-19T04:19:30.293Z,17.70
2022-08-19T04:21:58.383Z,17.80
2022-08-19T04:24:26.443Z,17.80
2022-08-19T04:26:59.493Z,17.80
2022-08-19T04:29:36.831Z,17.80
2022-08-19T04:32:08.815Z,17.90
2022-08-19T04:35:01.118Z,17.90
2022-08-19T04:37:29.562Z,17.90
2022-08-19T04:40:24.843Z,18.00
2022-08-19T04:42:52.959Z,18.00
2022-08-19T04:45:23.029Z,18.10
2022-08-19T04:48:19.827Z,18.10
2022-08-19T04:50:44.918Z,18.00
2022-08-19T04:53:12.874Z,18.00
2022-08-19T04:55:44.150Z,18.00
2022-08-19T04:58:11.886Z,18.10
2022-08-19T05:00:41.001Z,18.10
2022-08-19T05:03:11.037Z,18.10
2022-08-19T05:05:45.168Z,18.10
2022-08-19T05:08:15.411Z,18.10
2022-08-19T05:10:44.160Z,18.10
2022-08-19T05:13:12.001Z,18.10
2022-08-19T05:15:39.765Z,18.10
2022-08-19T05:18:25.988Z,18.10
2022-08-19T05:21:12.260Z,18.20
2022-08-19T05:23:42.177Z,18.10
2022-08-19T05:26:12.026Z,18.20
2022-08-19T05:28:39.776Z,18.30
2022-08-19T05:31:07.956Z,18.30
2022-08-19T05:33:36.388Z,18.30
2022-08-19T05:36:05.615Z,18.30
2022-08-19T05:38:37.473Z,18.40
2022-08-19T05:41:12.455Z,18.40
2022-08-19T05:43:40.174Z,18.30
2022-08-19T05:46:09.013Z,18.30
2022-08-19T05:48:37.156Z,18.10
2022-08-19T05:51:07.492Z,18.00
2022-08-19T05:53:36.522Z,17.90
2022-08-19T05:56:12.662Z,17.90
2022-08-19T05:58:40.444Z,17.80
2022-08-19T06:01:14.227Z,17.80
2022-08-19T06:03:42.620Z,17.90
2022-08-19T06:06:12.899Z,17.90
2022-08-19T06:08:52.477Z,17.90
2022-08-19T06:11:26.460Z,18.00
2022-08-19T06:14:00.238Z,18.00
2022-08-19T06:16:32.792Z,18.00
2022-08-19T06:19:05.223Z,18.00
2022-08-19T06:21:34.089Z,18.00
2022-08-19T06:24:04.807Z,18.00
2022-08-19T06:26:34.161Z,18.10
2022-08-19T06:29:07.901Z,18.10
2022-08-19T06:31:44.291Z,18.00
2022-08-19T06:34:13.100Z,18.10
2022-08-19T06:36:44.723Z,18.20
2022-08-19T06:39:15.619Z,18.20
2022-08-19T06:41:52.433Z,18.30
2022-08-19T06:44:31.940Z,18.40
2022-08-19T06:47:09.636Z,18.40
2022-08-19T06:49:43.724Z,18.40
2022-08-19T06:52:13.693Z,18.50
2022-08-19T06:54:56.382Z,18.40
2022-08-19T06:57:25.915Z,18.40
2022-08-19T06:59:54.285Z,18.50
2022-08-19T07:02:22.198Z,18.50
2022-08-19T07:04:52.636Z,18.50
2022-08-19T07:07:22.103Z,18.60
2022-08-19T07:09:58.556Z,18.50
2022-08-19T07:12:32.419Z,18.70
2022-08-19T07:15:00.244Z,18.60
2022-08-19T07:17:29.346Z,18.70
2022-08-19T07:20:05.350Z,18.80
2022-08-19T07:22:41.206Z,18.70
2022-08-19T07:25:11.107Z,18.70
2022-08-19T07:27:39.747Z,18.70
2022-08-19T07:30:12.215Z,18.60
2022-08-19T07:32:41.018Z,18.60
2022-08-19T07:35:10.376Z,18.60
2022-08-19T07:37:39.288Z,18.60
2022-08-19T07:40:08.799Z,18.60
2022-08-19T07:42:36.757Z,18.70
2022-08-19T07:45:10.129Z,18.50
2022-08-19T07:47:50.159Z,18.30
2022-08-19T07:50:25.808Z,18.40
2022-08-19T07:52:53.933Z,18.40
2022-08-19T07:55:42.233Z,18.50
2022-08-19T07:58:14.172Z,18.40
2022-08-19T08:00:43.588Z,18.60
2022-08-19T08:03:12.283Z,18.40
2022-08-19T08:05:58.643Z,18.20
2022-08-19T08:08:48.373Z,18.40
2022-08-19T08:11:21.289Z,18.50
2022-08-19T08:14:01.006Z,18.70
2022-08-19T08:16:39.360Z,18.80
2022-08-19T08:19:14.750Z,18.70
2022-08-19T08:21:57.556Z,18.60
2022-08-19T08:24:28.605Z,18.70
2022-08-19T08:26:57.897Z,18.90
2022-08-19T08:29:34.791Z,19.10
2022-08-19T08:32:14.259Z,19.10
2022-08-19T08:34:43.407Z,18.90
2022-08-19T08:37:11.312Z,18.90
2022-08-19T08:39:39.127Z,19.10
2022-08-19T08:42:23.674Z,19.10
2022-08-19T08:45:04.744Z,19.00
2022-08-19T08:47:38.721Z,19.10
2022-08-19T08:50:16.837Z,19.10
2022-08-19T08:52:47.572Z,18.90
2022-08-19T08:55:36.778Z,18.70
2022-08-19T08:58:06.916Z,18.80
2022-08-19T09:00:39.842Z,19.00
2022-08-19T09:03:27.188Z,19.10
2022-08-19T09:06:13.013Z,19.00
2022-08-19T09:08:56.755Z,18.80
2022-08-19T09:12:03.376Z,18.80
2022-08-19T09:14:51.531Z,18.70
2022-08-19T09:17:28.566Z,18.50
2022-08-19T09:20:06.321Z,18.60
2022-08-19T09:22:44.942Z,18.70
2022-08-19T09:25:16.199Z,18.90
2022-08-19T09:27:44.333Z,18.90
2022-08-19T09:30:23.144Z,18.90
2022-08-19T09:32:53.753Z,18.90
2022-08-19T09:35:24.887Z,18.90
2022-08-19T09:37:57.834Z,19.20
2022-08-19T09:40:35.405Z,19.50
2022-08-19T09:43:11.842Z,19.70
2022-08-19T09:45:41.241Z,20.10
2022-08-19T09:48:09.455Z,20.20
2022-08-19T09:50:51.796Z,20.00
2022-08-19T09:53:25.355Z,19.80
2022-08-19T09:55:56.098Z,19.80
2022-08-19T09:58:28.658Z,19.70
2022-08-19T10:00:58.137Z,19.80
2022-08-19T10:03:30.007Z,19.80
2022-08-19T10:06:00.495Z,19.70
2022-08-19T10:08:37.735Z,19.50
2022-08-19T10:11:27.841Z,19.40
2022-08-19T10:13:58.348Z,19.30
2022-08-19T10:16:30.342Z,19.20
2022-08-19T10:18:59.297Z,19.00
2022-08-19T10:21:29.663Z,18.90
2022-08-19T10:24:26.844Z,18.80
2022-08-19T10:26:58.917Z,18.90
2022-08-19T10:29:31.919Z,19.00
2022-08-19T10:32:09.649Z,19.20
2022-08-19T10:34:48.069Z,19.20
2022-08-19T10:37:23.781Z,19.20
2022-08-19T10:39:52.260Z,19.20
2022-08-19T10:42:20.507Z,19.20
2022-08-19T10:44:48.215Z,19.20
2022-08-19T10:47:17.642Z,19.20
2022-08-19T10:50:12.553Z,19.30
2022-08-19T10:52:49.110Z,19.20
2022-08-19T10:55:39.638Z,19.20
2022-08-19T10:58:26.872Z,19.10
2022-08-19T11:00:56.813Z,19.00
2022-08-19T11:03:25.459Z,19.10
2022-08-19T11:06:00.414Z,19.10
2022-08-19T11:08:28.439Z,19.00
2022-08-19T11:10:58.641Z,18.90
2022-08-19T11:13:26.822Z,18.90
2022-08-19T11:16:09.070Z,18.80
2022-08-19T11:18:40.223Z,18.80
2022-08-19T11:21:18.383Z,18.80
2022-08-19T11:23:48.047Z,18.70
2022-08-19T11:26:17.341Z,18.60
2022-08-19T11:28:45.248Z,18.60
2022-08-19T11:31:19.375Z,18.70
2022-08-19T11:33:48.159Z,18.80
2022-08-19T11:36:17.136Z,18.80
2022-08-19T11:38:46.429Z,18.80
2022-08-19T11:41:14.226Z,18.80
2022-08-19T11:43:41.928Z,18.80
2022-08-19T11:46:11.686Z,18.60
2022-08-19T11:48:40.211Z,18.50
2022-08-19T11:51:17.211Z,18.40
2022-08-19T11:53:45.624Z,18.30
2022-08-19T11:56:13.843Z,18.40
2022-08-19T11:58:47.177Z,18.40
2022-08-19T12:01:18.315Z,18.50
2022-08-19T12:03:47.631Z,18.50
2022-08-19T12:06:25.054Z,18.50
2022-08-19T12:08:53.273Z,18.50
2022-08-19T12:11:21.745Z,18.50
2022-08-19T12:13:49.521Z,18.60
2022-08-19T12:16:20.650Z,18.50
2022-08-19T12:18:48.473Z,18.50
2022-08-19T12:21:29.304Z,18.30
2022-08-19T12:23:58.828Z,18.10
2022-08-19T12:26:29.217Z,18.10
2022-08-19T12:28:57.073Z,18.20
2022-08-19T12:31:24.769Z,18.30
2022-08-19T12:33:53.472Z,18.50
2022-08-19T12:36:23.060Z,18.60
2022-08-19T12:38:51.265Z,18.80
2022-08-19T12:41:22.686Z,18.70
2022-08-19T12:43:50.961Z,18.70
2022-08-19T12:46:22.270Z,18.70
2022-08-19T12:48:55.308Z,18.80
2022-08-19T12:51:23.398Z,19.00
2022-08-19T12:53:51.068Z,19.00
2022-08-19T12:56:23.255Z,19.00
2022-08-19T12:58:53.102Z,19.00
2022-08-19T13:01:22.879Z,19.00
2022-08-19T13:03:54.493Z,19.00
2022-08-19T13:06:23.680Z,18.70
2022-08-19T13:08:51.996Z,18.70
2022-08-19T13:11:22.169Z,18.70
2022-08-19T13:13:52.059Z,18.80
2022-08-19T13:16:21.308Z,18.60
2022-08-19T13:18:52.866Z,18.40
2022-08-19T13:21:23.178Z,18.50
2022-08-19T13:23:53.452Z,18.40
2022-08-19T13:26:22.241Z,18.40
2022-08-19T13:29:08.323Z,18.30
2022-08-19T13:32:13.271Z,18.10
2022-08-19T13:34:47.868Z,18.00
2022-08-19T13:37:15.615Z,18.00
2022-08-19T13:39:43.430Z,18.10
2022-08-19T13:42:11.773Z,18.10
2022-08-19T13:44:39.589Z,18.10
2022-08-19T13:47:08.047Z,18.10
2022-08-19T13:49:37.481Z,18.20
2022-08-19T13:52:06.842Z,18.20
2022-08-19T13:54:34.595Z,18.10
2022-08-19T13:57:02.415Z,18.00
2022-08-19T13:59:30.152Z,18.20
2022-08-19T14:02:01.905Z,18.10
2022-08-19T14:04:30.126Z,18.10
2022-08-19T14:06:57.906Z,18.10
2022-08-19T14:09:25.650Z,18.20
2022-08-19T14:11:53.368Z,18.30
2022-08-19T14:14:21.166Z,18.30
2022-08-19T14:16:49.984Z,18.50
2022-08-19T14:19:17.740Z,18.50
2022-08-19T14:21:45.532Z,18.80
2022-08-19T14:24:13.341Z,19.10
2022-08-19T14:26:41.090Z,19.50
2022-08-19T14:29:08.800Z,19.70
2022-08-19T14:31:36.551Z,20.00
2022-08-19T14:34:04.250Z,19.90
2022-08-19T14:36:37.411Z,19.60
2022-08-19T14:39:06.821Z,19.60
2022-08-19T14:41:34.935Z,19.60
2022-08-19T14:44:02.724Z,19.80
2022-08-19T14:46:30.745Z,19.90
2022-08-19T14:48:59.894Z,19.80
2022-08-19T14:51:28.317Z,19.60
2022-08-19T14:53:57.205Z,19.60
2022-08-19T14:56:28.293Z,19.80
2022-08-19T14:58:58.083Z,20.00
2022-08-19T15:01:26.024Z,20.00
2022-08-19T15:03:55.835Z,20.10
2022-08-19T15:06:24.980Z,20.00
2022-08-19T15:08:53.827Z,19.90
2022-08-19T15:11:24.726Z,19.70
2022-08-19T15:13:52.447Z,19.70
2022-08-19T15:16:21.289Z,19.60
2022-08-19T15:18:52.071Z,19.40
2022-08-19T15:21:34.418Z,19.30
2022-08-19T15:24:02.450Z,19.30
2022-08-19T15:26:33.282Z,19.30
2022-08-19T15:29:02.896Z,19.20
2022-08-19T15:31:38.910Z,19.10
2022-08-19T15:34:07.499Z,19.00
2022-08-19T15:36:36.739Z,19.00
2022-08-19T15:39:06.456Z,19.00
2022-08-19T15:41:34.613Z,18.90
2022-08-19T15:44:09.681Z,18.90
2022-08-19T15:46:39.561Z,18.80
2022-08-19T15:49:08.114Z,18.40
2022-08-19T15:51:37.253Z,18.30
2022-08-19T15:54:08.695Z,18.10
2022-08-19T15:57:05.785Z,18.00
2022-08-19T15:59:54.155Z,17.80
2022-08-19T16:02:43.777Z,17.90
2022-08-19T16:05:36.279Z,17.70
2022-08-19T16:08:04.581Z,17.80
2022-08-19T16:10:32.658Z,17.60
2022-08-19T16:13:00.721Z,17.60
2022-08-19T16:15:30.701Z,17.50
2022-08-19T16:17:58.933Z,17.30
2022-08-19T16:20:27.982Z,17.20
2022-08-19T16:23:00.065Z,17.10
2022-08-19T16:25:30.036Z,17.00
2022-08-19T16:28:07.064Z,17.00
2022-08-19T16:30:38.444Z,16.90
2022-08-19T16:33:11.724Z,16.90
2022-08-19T16:35:39.808Z,16.80
2022-08-19T16:38:07.625Z,16.70
2022-08-19T16:40:35.941Z,16.70
2022-08-19T16:43:04.320Z,16.60
2022-08-19T16:45:32.210Z,16.40
2022-08-19T16:48:00.037Z,16.40
2022-08-19T16:50:47.802Z,16.30
2022-08-19T16:53:17.553Z,16.30
2022-08-19T16:55:51.098Z,16.30
2022-08-19T16:58:19.692Z,16.20
2022-08-19T17:00:50.028Z,16.10
2022-08-19T17:03:19.736Z,16.10
2022-08-19T17:06:17.768Z,16.30
2022-08-19T17:08:50.812Z,16.30
2022-08-19T17:11:19.914Z,16.40
2022-08-19T17:13:48.535Z,16.30
2022-08-19T17:16:30.036Z,16.20
2022-08-19T17:18:59.819Z,16.30
2022-08-19T17:21:40.983Z,16.40
2022-08-19T17:24:09.037Z,16.40
2022-08-19T17:26:38.703Z,16.40
2022-08-19T17:29:06.399Z,16.50
2022-08-19T17:31:37.147Z,16.50
2022-08-19T17:35:23.927Z,16.50
2022-08-19T17:37:24.880Z,16.30
2022-08-19T17:39:52.889Z,16.30
2022-08-19T17:42:20.868Z,16.30
2022-08-19T17:44:50.757Z,16.30
2022-08-19T17:47:21.389Z,16.30
2022-08-19T17:49:49.305Z,16.30
2022-08-19T17:52:17.337Z,16.30
2022-08-19T17:54:45.745Z,16.30
2022-08-19T17:57:14.309Z,16.30
2022-08-19T17:59:42.458Z,16.30
2022-08-19T18:02:12.323Z,16.30
2022-08-19T18:04:45.458Z,16.30
2022-08-19T18:07:21.774Z,16.30
2022-08-19T18:09:52.615Z,16.20
2022-08-19T18:12:27.021Z,16.20
2022-08-19T18:14:54.892Z,16.10
2022-08-19T18:17:23.459Z,16.00
2022-08-19T18:19:53.676Z,15.90
2022-08-19T18:22:26.704Z,15.90
2022-08-19T18:24:59.237Z,15.90
2022-08-19T18:27:29.308Z,15.90
2022-08-19T18:29:59.266Z,15.90
2022-08-19T18:32:33.376Z,15.90
2022-08-19T18:35:05.284Z,15.90
2022-08-19T18:37:33.361Z,15.90
2022-08-19T18:40:19.549Z,15.90
2022-08-19T18:43:06.882Z,15.80
2022-08-19T18:45:53.451Z,15.80
2022-08-19T18:48:39.920Z,15.70
2022-08-19T18:51:09.112Z,15.60
2022-08-19T18:53:41.663Z,15.50
2022-08-19T18:56:13.366Z,15.50
2022-08-19T18:58:44.417Z,15.40
2022-08-19T19:01:22.023Z,15.40
2022-08-19T19:03:53.811Z,15.50
2022-08-19T19:06:29.910Z,15.50
2022-08-19T19:08:58.493Z,15.60
2022-08-19T19:11:29.242Z,15.60
2022-08-19T19:13:57.733Z,15.60
2022-08-19T19:16:25.507Z,15.50
2022-08-19T19:18:53.649Z,15.40
2022-08-19T19:21:23.973Z,15.40
2022-08-19T19:24:00.987Z,15.50
2022-08-19T19:26:31.450Z,15.30
2022-08-19T19:28:59.927Z,15.20
2022-08-19T19:31:27.872Z,15.20
2022-08-19T19:33:56.326Z,15.40
2022-08-19T19:36:25.971Z,15.40
2022-08-19T19:38:53.811Z,15.30
2022-08-19T19:41:24.444Z,15.30
2022-08-19T19:44:30.364Z,15.30
2022-08-19T19:46:49.043Z,15.40
2022-08-19T19:49:16.834Z,15.40
2022-08-19T19:51:44.523Z,15.40
2022-08-19T19:54:20.548Z,15.30
2022-08-19T19:56:51.126Z,15.30
2022-08-19T19:59:19.043Z,15.20
2022-08-19T20:01:47.273Z,15.20
2022-08-19T20:04:16.860Z,15.10
2022-08-19T20:06:46.575Z,15.00
2022-08-19T20:09:19.925Z,15.10
2022-08-19T20:11:54.295Z,15.20
2022-08-19T20:14:27.026Z,15.10
2022-08-19T20:16:57.554Z,15.10
2022-08-19T20:19:28.131Z,15.20
2022-08-19T20:21:57.583Z,15.10
2022-08-19T20:24:29.409Z,15.10
2022-08-19T20:26:57.162Z,15.10
2022-08-19T20:29:39.552Z,15.00
2022-08-19T20:32:10.559Z,15.10
2022-08-19T20:34:39.787Z,15.10
2022-08-19T20:37:09.655Z,15.00
2022-08-19T20:39:38.391Z,15.00
2022-08-19T20:42:06.834Z,14.90
2022-08-19T20:44:35.715Z,14.80
2022-08-19T20:47:04.275Z,14.80
2022-08-19T20:49:32.396Z,14.90
2022-08-19T20:52:03.198Z,14.80
2022-08-19T20:54:33.130Z,14.70
2022-08-19T20:57:03.630Z,14.70
2022-08-19T20:59:31.450Z,14.70
2022-08-19T21:01:59.437Z,14.60
2022-08-19T21:04:27.167Z,14.60
2022-08-19T21:06:55.114Z,14.70
2022-08-19T21:09:22.887Z,14.80
2022-08-19T21:11:50.712Z,14.70
2022-08-19T21:14:18.537Z,14.70
2022-08-19T21:16:47.416Z,14.70
2022-08-19T21:19:15.116Z,14.80
2022-08-19T21:21:43.068Z,14.80
2022-08-19T21:24:10.851Z,14.90
2022-08-19T21:26:38.583Z,14.90
2022-08-19T21:29:06.687Z,14.80
2022-08-19T21:31:34.463Z,14.70
2022-08-19T21:34:02.240Z,14.60
2022-08-19T21:36:29.898Z,14.50
2022-08-19T21:38:57.614Z,14.60
2022-08-19T21:41:25.388Z,14.60
2022-08-19T21:43:53.140Z,14.50
2022-08-19T21:46:20.855Z,14.50
2022-08-19T21:48:48.880Z,14.40
2022-08-19T21:51:16.719Z,14.40
2022-08-19T21:53:44.628Z,14.50
2022-08-19T21:56:13.130Z,14.50
2022-08-19T21:58:41.650Z,14.50
2022-08-19T22:01:09.566Z,14.40
2022-08-19T22:03:38.850Z,14.50
2022-08-19T22:06:07.171Z,14.50
2022-08-19T22:08:35.229Z,14.50
2022-08-19T22:11:05.982Z,14.50
2022-08-19T22:13:40.222Z,14.40
2022-08-19T22:16:09.740Z,14.50
2022-08-19T22:18:37.836Z,14.40
2022-08-19T22:21:11.221Z,14.20
2022-08-19T22:23:40.766Z,14.20
2022-08-19T22:26:08.728Z,14.20
2022-08-19T22:28:36.593Z,14.20
2022-08-19T22:31:05.917Z,14.10
2022-08-19T22:33:34.220Z,14.10
2022-08-19T22:36:02.016Z,14.10
2022-08-19T22:38:29.882Z,14.00
2022-08-19T22:40:58.160Z,14.00
2022-08-19T22:43:34.095Z,14.10
2022-08-19T22:46:02.596Z,14.10
2022-08-19T22:48:32.795Z,14.10
2022-08-19T22:51:19.480Z,14.10
2022-08-19T22:53:47.720Z,14.10
2022-08-19T22:56:19.407Z,14.10
2022-08-19T22:58:50.005Z,14.00
2022-08-19T23:01:27.716Z,14.00
2022-08-19T23:04:03.724Z,14.10
2022-08-19T23:06:33.473Z,14.30
2022-08-19T23:09:05.190Z,14.40
2022-08-19T23:11:38.098Z,14.40
2022-08-19T23:14:11.476Z,14.40
2022-08-19T23:16:39.605Z,14.30
2022-08-19T23:19:10.446Z,14.20
2022-08-19T23:21:42.927Z,14.20
2022-08-19T23:24:11.677Z,14.10
2022-08-19T23:26:59.838Z,14.10
2022-08-19T23:29:45.992Z,14.10
2022-08-19T23:32:16.761Z,14.10
2022-08-19T23:34:45.406Z,14.00
2022-08-19T23:37:13.447Z,14.00
2022-08-19T23:39:41.325Z,13.90
2022-08-19T23:42:11.815Z,13.80
2022-08-19T23:44:52.211Z,13.70
2022-08-19T23:47:21.651Z,13.80
2022-08-19T23:49:50.537Z,13.80
2022-08-19T23:52:18.389Z,13.80
2022-08-19T23:54:46.140Z,13.90
2022-08-19T23:57:14.520Z,13.70
2022-08-19T23:59:45.484Z,13.70
